createdAt,value
2018-02-15T00:01:25.939Z,24.10
2018-02-15T00:03:53.515Z,22.83
2018-02-15T00:06:21.041Z,21.83
2018-02-15T00:08:48.594Z,18.58
2018-02-15T00:11:16.127Z,17.53
2018-02-15T00:13:43.674Z,17.37
2018-02-15T00:16:11.254Z,17.67
2018-02-15T00:18:38.831Z,17.00
2018-02-15T00:21:06.355Z,20.60
2018-02-15T00:23:33.928Z,27.53
2018-02-15T00:26:01.488Z,32.83
2018-02-15T00:28:29.012Z,25.90
2018-02-15T00:30:56.591Z,18.33
2018-02-15T00:33:24.116Z,16.93
2018-02-15T00:35:51.668Z,15.10
2018-02-15T00:38:19.272Z,15.57
2018-02-15T00:40:46.823Z,16.15
2018-02-15T00:43:14.401Z,14.83
2018-02-15T00:45:41.979Z,16.10
2018-02-15T00:48:09.506Z,14.97
2018-02-15T00:50:37.032Z,14.60
2018-02-15T00:53:04.638Z,14.73
2018-02-15T00:55:32.486Z,14.23
2018-02-15T00:58:00.064Z,13.47
2018-02-15T01:00:27.591Z,13.67
2018-02-15T01:02:55.169Z,14.00
2018-02-15T01:05:22.696Z,14.15
2018-02-15T01:07:50.302Z,13.63
2018-02-15T01:10:17.826Z,14.10
2018-02-15T01:12:45.421Z,14.27
2018-02-15T01:15:12.927Z,12.47
2018-02-15T01:17:40.458Z,13.13
2018-02-15T01:20:08.217Z,13.23
2018-02-15T01:22:36.966Z,13.73
2018-02-15T01:25:04.560Z,13.53
2018-02-15T01:27:32.120Z,13.20
2018-02-15T01:30:00.081Z,13.63
2018-02-15T01:32:28.429Z,14.17
2018-02-15T01:34:56.324Z,14.13
2018-02-15T01:37:23.943Z,14.43
2018-02-15T01:39:51.542Z,14.77
2018-02-15T01:42:19.100Z,14.33
2018-02-15T01:44:47.159Z,15.20
2018-02-15T01:47:14.739Z,15.07
2018-02-15T01:49:54.214Z,14.73
2018-02-15T01:52:21.739Z,13.75
2018-02-15T01:54:49.255Z,14.27
2018-02-15T01:57:16.944Z,14.97
2018-02-15T01:59:44.539Z,14.90
2018-02-15T02:02:12.273Z,15.70
2018-02-15T02:04:39.802Z,14.50
2018-02-15T02:07:07.354Z,14.83
2018-02-15T02:09:34.882Z,14.85
2018-02-15T02:12:02.430Z,14.70
2018-02-15T02:14:29.967Z,15.20
2018-02-15T02:16:57.488Z,15.30
2018-02-15T02:19:25.068Z,14.17
2018-02-15T02:21:52.590Z,15.37
2018-02-15T02:24:20.144Z,15.85
2018-02-15T02:26:47.670Z,15.73
2018-02-15T02:29:15.250Z,15.45
2018-02-15T02:31:42.766Z,16.07
2018-02-15T02:34:10.329Z,15.63
2018-02-15T02:36:37.855Z,14.93
2018-02-15T02:39:05.483Z,15.90
2018-02-15T02:41:33.033Z,15.47
2018-02-15T02:44:00.563Z,14.93
2018-02-15T02:46:28.116Z,15.67
2018-02-15T02:48:55.689Z,14.27
2018-02-15T02:51:23.248Z,15.55
2018-02-15T02:53:50.801Z,15.20
2018-02-15T02:56:19.417Z,15.38
2018-02-15T02:58:46.957Z,16.83
2018-02-15T03:01:14.506Z,15.93
2018-02-15T03:03:42.054Z,16.23
2018-02-15T03:06:09.583Z,16.40
2018-02-15T03:08:37.159Z,15.67
2018-02-15T03:11:04.713Z,15.63
2018-02-15T03:13:32.317Z,16.07
2018-02-15T03:15:59.842Z,17.30
2018-02-15T03:18:27.419Z,16.10
2018-02-15T03:20:54.947Z,17.10
2018-02-15T03:23:22.475Z,16.40
2018-02-15T03:25:50.098Z,16.83
2018-02-15T03:28:17.680Z,17.60
2018-02-15T03:30:45.234Z,17.13
2018-02-15T03:33:12.759Z,17.60
2018-02-15T03:35:40.310Z,17.70
2018-02-15T03:38:07.834Z,16.73
2018-02-15T03:40:35.383Z,16.50
2018-02-15T03:43:03.041Z,16.80
2018-02-15T03:45:30.599Z,16.52
2018-02-15T03:47:58.118Z,16.33
2018-02-15T03:50:25.703Z,17.37
2018-02-15T03:52:53.251Z,17.37
2018-02-15T03:55:21.726Z,17.83
2018-02-15T03:57:49.279Z,18.63
2018-02-15T04:00:16.805Z,21.20
2018-02-15T04:02:44.423Z,26.13
2018-02-15T04:05:11.965Z,24.53
2018-02-15T04:07:39.514Z,22.03
2018-02-15T04:10:07.041Z,21.20
2018-02-15T04:12:34.616Z,20.37
2018-02-15T04:15:02.169Z,19.47
2018-02-15T04:17:29.780Z,20.58
2018-02-15T04:19:57.350Z,18.90
2018-02-15T04:22:24.895Z,20.73
2018-02-15T04:24:52.454Z,18.77
2018-02-15T04:27:19.980Z,19.10
2018-02-15T04:29:47.540Z,19.67
2018-02-15T04:32:15.059Z,19.37
2018-02-15T04:34:42.614Z,20.60
2018-02-15T04:37:10.149Z,17.67
2018-02-15T04:39:37.717Z,17.17
2018-02-15T04:42:05.246Z,17.43
2018-02-15T04:44:32.769Z,18.58
2018-02-15T04:47:00.320Z,19.43
2018-02-15T04:49:27.856Z,18.17
2018-02-15T04:51:55.423Z,18.60
2018-02-15T04:54:22.956Z,20.10
2018-02-15T04:56:50.535Z,18.80
2018-02-15T04:59:18.064Z,19.23
2018-02-15T05:01:45.630Z,18.77
2018-02-15T05:04:13.172Z,17.97
2018-02-15T05:06:40.691Z,18.90
2018-02-15T05:09:08.271Z,17.60
2018-02-15T05:11:35.833Z,17.70
2018-02-15T05:14:03.643Z,17.07
2018-02-15T05:16:31.200Z,16.63
2018-02-15T05:18:58.831Z,17.07
2018-02-15T05:21:26.378Z,17.02
2018-02-15T05:23:53.985Z,17.17
2018-02-15T05:26:22.133Z,17.25
2018-02-15T05:28:49.714Z,19.60
2018-02-15T05:31:17.241Z,17.87
2018-02-15T05:33:45.023Z,20.00
2018-02-15T05:36:12.567Z,18.83
2018-02-15T05:38:40.095Z,19.33
2018-02-15T05:41:07.649Z,20.53
2018-02-15T05:43:35.276Z,19.80
2018-02-15T05:46:02.830Z,21.27
2018-02-15T05:48:30.354Z,20.33
2018-02-15T05:50:57.907Z,21.37
2018-02-15T05:53:25.464Z,26.50
2018-02-15T05:55:53.073Z,22.45
2018-02-15T05:58:20.612Z,21.47
2018-02-15T06:00:48.147Z,22.50
2018-02-15T06:03:15.699Z,20.43
2018-02-15T06:05:43.220Z,23.43
2018-02-15T06:08:10.774Z,25.13
2018-02-15T06:10:38.298Z,26.37
2018-02-15T06:13:05.851Z,23.10
2018-02-15T06:15:33.445Z,24.30
2018-02-15T06:18:00.980Z,21.70
2018-02-15T06:20:28.506Z,24.23
2018-02-15T06:22:56.061Z,23.03
2018-02-15T06:25:23.589Z,21.63
2018-02-15T06:27:51.190Z,23.03
2018-02-15T06:30:18.744Z,22.97
2018-02-15T06:32:46.275Z,26.17
2018-02-15T06:35:13.908Z,23.37
2018-02-15T06:37:41.426Z,22.40
2018-02-15T06:40:08.980Z,24.10
2018-02-15T06:42:36.631Z,24.30
2018-02-15T06:45:04.174Z,23.37
2018-02-15T06:47:31.993Z,23.23
2018-02-15T06:49:59.560Z,21.62
2018-02-15T06:52:27.228Z,24.50
2018-02-15T06:54:54.765Z,23.30
2018-02-15T06:57:22.467Z,22.97
2018-02-15T06:59:50.072Z,21.27
2018-02-15T07:02:17.646Z,22.87
2018-02-15T07:04:45.174Z,24.77
2018-02-15T07:07:12.743Z,22.87
2018-02-15T07:09:40.373Z,21.77
2018-02-15T07:12:07.931Z,21.50
2018-02-15T07:14:35.459Z,24.90
2018-02-15T07:17:03.042Z,21.33
2018-02-15T07:19:30.562Z,23.70
2018-02-15T07:21:58.091Z,24.45
2018-02-15T07:24:25.672Z,26.02
2018-02-15T07:26:55.493Z,23.65
2018-02-15T07:29:23.714Z,20.23
2018-02-15T07:31:51.231Z,20.23
2018-02-15T07:34:18.804Z,20.17
2018-02-15T07:36:46.353Z,22.80
2018-02-15T07:39:13.930Z,22.70
2018-02-15T07:41:41.489Z,25.03
2018-02-15T07:44:09.066Z,23.73
2018-02-15T07:46:36.589Z,23.65
2018-02-15T07:49:04.114Z,23.00
2018-02-15T07:51:31.742Z,28.60
2018-02-15T07:53:59.414Z,24.77
2018-02-15T07:56:27.198Z,23.00
2018-02-15T07:58:54.796Z,27.40
2018-02-15T08:01:23.000Z,32.07
2018-02-15T08:03:51.430Z,28.77
2018-02-15T08:06:20.423Z,26.60
2018-02-15T08:08:48.057Z,28.47
2018-02-15T08:11:15.690Z,25.83
2018-02-15T08:13:43.336Z,28.37
2018-02-15T08:16:10.839Z,25.97
2018-02-15T08:18:38.809Z,27.63
2018-02-15T08:21:06.440Z,24.97
2018-02-15T08:23:34.022Z,31.77
2018-02-15T08:26:01.696Z,27.70
2018-02-15T08:28:29.251Z,27.43
2018-02-15T08:30:56.778Z,25.10
2018-02-15T08:33:25.174Z,25.17
2018-02-15T08:35:52.930Z,20.83
2018-02-15T08:38:20.462Z,23.43
2018-02-15T08:40:48.064Z,23.70
2018-02-15T08:43:15.615Z,27.27
2018-02-15T08:45:43.195Z,27.70
2018-02-15T08:48:10.720Z,25.67
2018-02-15T08:50:38.299Z,28.37
2018-02-15T08:53:05.844Z,29.37
2018-02-15T08:55:33.402Z,24.93
2018-02-15T08:58:01.326Z,24.43
2018-02-15T09:00:29.206Z,28.43
2018-02-15T09:02:56.732Z,24.40
2018-02-15T09:05:24.263Z,28.07
2018-02-15T09:07:51.837Z,23.97
2018-02-15T09:10:19.389Z,25.33
2018-02-15T09:12:46.994Z,27.20
2018-02-15T09:15:14.519Z,28.83
2018-02-15T09:17:42.070Z,28.13
2018-02-15T09:20:09.608Z,26.77
2018-02-15T09:22:38.161Z,27.17
2018-02-15T09:25:05.756Z,28.63
2018-02-15T09:27:33.308Z,26.52
2018-02-15T09:30:00.837Z,31.60
2018-02-15T09:32:28.487Z,30.98
2018-02-15T09:34:56.011Z,29.30
2018-02-15T09:37:24.515Z,24.63
2018-02-15T09:39:52.134Z,31.87
2018-02-15T09:42:19.692Z,27.30
2018-02-15T09:44:47.365Z,35.80
2018-02-15T09:47:14.899Z,31.97
2018-02-15T09:49:42.451Z,27.53
2018-02-15T09:52:10.258Z,29.60
2018-02-15T09:54:39.389Z,29.33
2018-02-15T09:57:06.907Z,31.47
2018-02-15T09:59:34.484Z,30.02
2018-02-15T10:02:03.058Z,34.60
2018-02-15T10:04:30.592Z,28.67
2018-02-15T10:06:58.414Z,33.23
2018-02-15T10:09:26.545Z,29.40
2018-02-15T10:11:54.615Z,29.63
2018-02-15T10:14:22.850Z,29.13
2018-02-15T10:16:50.476Z,31.37
2018-02-15T10:19:18.109Z,30.07
2018-02-15T10:21:45.704Z,27.97
2018-02-15T10:24:17.861Z,26.97
2018-02-15T10:26:51.784Z,30.50
2018-02-15T10:29:23.685Z,30.90
2018-02-15T10:31:56.064Z,28.00
2018-02-15T10:34:29.290Z,31.35
2018-02-15T10:39:40.149Z,28.97
2018-02-15T10:42:13.955Z,27.80
2018-02-15T10:44:46.520Z,27.67
2018-02-15T10:47:23.336Z,29.00
2018-02-15T10:49:56.632Z,25.77
2018-02-15T10:52:30.181Z,26.42
2018-02-15T10:55:04.345Z,31.50
2018-02-15T11:00:14.398Z,24.13
2018-02-15T11:02:46.254Z,26.67
2018-02-15T11:05:19.692Z,23.23
2018-02-15T11:07:50.691Z,24.37
2018-02-15T11:10:22.030Z,23.63
2018-02-15T11:12:54.220Z,23.27
2018-02-15T11:15:26.348Z,22.83
2018-02-15T11:18:00.206Z,21.77
2018-02-15T11:20:31.378Z,21.08
2018-02-15T11:23:08.089Z,24.47
2018-02-15T11:25:40.582Z,23.83
2018-02-15T11:28:10.371Z,21.85
2018-02-15T11:30:38.018Z,24.03
2018-02-15T11:33:05.620Z,23.60
2018-02-15T11:35:33.147Z,24.00
2018-02-15T11:38:00.676Z,21.37
2018-02-15T11:40:28.254Z,21.10
2018-02-15T11:42:56.431Z,23.70
2018-02-15T11:45:23.982Z,20.97
2018-02-15T11:47:51.510Z,21.20
2018-02-15T11:50:19.055Z,23.70
2018-02-15T11:52:47.133Z,21.80
2018-02-15T11:55:14.687Z,25.83
2018-02-15T11:57:42.218Z,23.13
2018-02-15T12:00:09.794Z,30.70
2018-02-15T12:02:37.324Z,23.40
2018-02-15T12:05:04.851Z,22.50
2018-02-15T12:07:32.401Z,28.25
2018-02-15T12:09:59.926Z,24.23
2018-02-15T12:12:27.477Z,24.48
2018-02-15T12:14:55.011Z,26.80
2018-02-15T12:17:22.561Z,26.95
2018-02-15T12:19:50.092Z,25.43
2018-02-15T12:22:17.638Z,30.13
2018-02-15T12:24:51.448Z,25.43
2018-02-15T12:27:19.245Z,29.63
2018-02-15T12:29:46.789Z,31.73
2018-02-15T12:32:14.350Z,31.13
2018-02-15T12:34:44.871Z,27.00
2018-02-15T12:37:13.594Z,30.80
2018-02-15T12:39:42.810Z,27.40
2018-02-15T12:42:10.658Z,27.43
2018-02-15T12:44:39.354Z,35.13
2018-02-15T12:47:07.491Z,33.00
2018-02-15T12:49:37.635Z,30.73
2018-02-15T12:52:05.893Z,29.87
2018-02-15T12:54:35.297Z,32.83
2018-02-15T12:57:02.998Z,32.67
2018-02-15T12:59:33.462Z,30.30
2018-02-15T13:02:03.207Z,39.42
2018-02-15T13:04:32.823Z,38.70
2018-02-15T13:07:00.910Z,34.07
2018-02-15T13:09:35.208Z,37.30
2018-02-15T13:12:11.466Z,37.43
2018-02-15T13:14:45.215Z,37.83
2018-02-15T13:20:04.800Z,36.50
2018-02-15T13:22:47.872Z,39.20
2018-02-15T13:28:09.553Z,36.60
2018-02-15T13:30:46.629Z,33.87
2018-02-15T13:33:21.029Z,31.20
2018-02-15T13:41:07.490Z,32.85
2018-02-15T13:43:41.744Z,34.03
2018-02-15T13:46:16.454Z,45.67
2018-02-15T13:48:48.243Z,41.37
2018-02-15T13:51:27.781Z,33.50
2018-02-15T13:54:02.679Z,35.37
2018-02-15T13:56:38.424Z,38.90
2018-02-15T14:01:46.212Z,37.10
2018-02-15T14:04:19.579Z,41.37
2018-02-15T14:06:52.241Z,35.13
2018-02-15T14:09:24.976Z,34.70
2018-02-15T14:11:57.537Z,35.00
2018-02-15T14:14:32.381Z,41.83
2018-02-15T14:17:06.319Z,39.50
2018-02-15T14:19:39.868Z,39.20
2018-02-15T14:22:11.345Z,35.23
2018-02-15T14:24:40.074Z,34.00
2018-02-15T14:27:08.099Z,39.23
2018-02-15T14:29:37.948Z,37.47
2018-02-15T14:32:10.080Z,43.53
2018-02-15T14:34:40.094Z,44.87
2018-02-15T14:37:08.884Z,38.13
2018-02-15T14:39:38.596Z,43.13
2018-02-15T14:42:06.343Z,45.97
2018-02-15T14:44:34.498Z,41.20
2018-02-15T14:47:02.322Z,32.13
2018-02-15T14:49:31.153Z,32.87
2018-02-15T14:52:00.483Z,28.63
2018-02-15T14:54:28.999Z,36.10
2018-02-15T14:57:01.466Z,38.95
2018-02-15T14:59:29.359Z,33.25
2018-02-15T15:01:58.757Z,38.90
2018-02-15T15:04:28.111Z,35.00
2018-02-15T15:06:58.165Z,41.13
2018-02-15T15:09:28.306Z,38.37
2018-02-15T15:11:59.976Z,35.70
2018-02-15T15:14:28.922Z,37.60
2018-02-15T15:16:59.222Z,46.40
2018-02-15T15:19:29.954Z,45.38
2018-02-15T15:21:59.296Z,43.30
2018-02-15T15:24:28.136Z,40.78
2018-02-15T15:26:56.549Z,42.47
2018-02-15T15:29:27.866Z,39.43
2018-02-15T15:31:56.450Z,37.80
2018-02-15T15:34:25.572Z,47.50
2018-02-15T15:36:53.140Z,36.00
2018-02-15T15:39:22.839Z,39.60
2018-02-15T15:41:50.921Z,41.70
2018-02-15T15:44:19.449Z,40.08
2018-02-15T15:46:47.028Z,41.87
2018-02-15T15:49:14.578Z,37.72
2018-02-15T15:51:42.175Z,44.33
2018-02-15T15:54:09.711Z,56.40
2018-02-15T15:56:37.937Z,57.10
2018-02-15T15:59:05.795Z,51.08
2018-02-15T16:01:33.623Z,53.03
2018-02-15T16:04:02.168Z,43.65
2018-02-15T16:06:29.694Z,51.03
2018-02-15T16:08:57.876Z,55.70
2018-02-15T16:11:25.470Z,52.00
2018-02-15T16:13:53.055Z,52.57
2018-02-15T16:16:20.604Z,51.27
2018-02-15T16:18:49.058Z,59.50
2018-02-15T16:21:16.583Z,59.73
2018-02-15T16:23:45.631Z,69.03
2018-02-15T16:26:13.189Z,48.07
2018-02-15T16:28:40.739Z,46.13
2018-02-15T16:31:08.292Z,49.10
2018-02-15T16:33:35.873Z,44.97
2018-02-15T16:36:03.422Z,48.07
2018-02-15T16:38:31.150Z,46.07
2018-02-15T16:40:58.754Z,48.27
2018-02-15T16:43:29.707Z,45.65
2018-02-15T16:45:59.511Z,48.53
2018-02-15T16:48:27.988Z,53.93
2018-02-15T16:50:58.258Z,47.70
2018-02-15T16:56:16.414Z,51.93
2018-02-15T16:58:48.880Z,46.77
2018-02-15T17:01:19.274Z,41.70
2018-02-15T17:03:48.391Z,50.50
2018-02-15T17:06:19.151Z,48.13
2018-02-15T17:08:48.078Z,44.73
2018-02-15T17:11:16.651Z,42.97
2018-02-15T17:13:46.231Z,39.97
2018-02-15T17:16:14.585Z,49.93
2018-02-15T17:18:45.809Z,68.17
2018-02-15T17:21:15.623Z,72.25
2018-02-15T17:23:44.490Z,66.00
2018-02-15T17:26:14.038Z,61.77
2018-02-15T17:28:43.348Z,51.50
2018-02-15T17:31:11.106Z,51.50
2018-02-15T17:33:40.629Z,45.13
2018-02-15T17:36:08.818Z,47.30
2018-02-15T17:38:38.131Z,55.90
2018-02-15T17:41:07.075Z,46.50
2018-02-15T17:43:35.831Z,45.75
2018-02-15T17:48:44.714Z,47.37
2018-02-15T17:51:14.023Z,39.60
2018-02-15T17:53:44.787Z,37.07
2018-02-15T17:56:14.288Z,29.67
2018-02-15T17:58:43.225Z,35.67
2018-02-15T18:01:14.608Z,28.77
2018-02-15T18:03:42.628Z,26.17
2018-02-15T18:06:11.328Z,24.63
2018-02-15T18:08:41.729Z,24.87
2018-02-15T18:11:11.163Z,29.33
2018-02-15T18:13:41.636Z,34.63
2018-02-15T18:16:12.109Z,36.87
2018-02-15T18:18:41.564Z,50.80
2018-02-15T18:21:09.992Z,37.47
2018-02-15T18:23:40.130Z,48.57
2018-02-15T18:28:51.193Z,33.40
2018-02-15T18:31:18.779Z,38.80
2018-02-15T18:33:46.458Z,39.17
2018-02-15T18:36:15.446Z,33.60
2018-02-15T18:38:43.686Z,36.27
2018-02-15T18:41:11.210Z,32.73
2018-02-15T18:43:38.738Z,29.80
2018-02-15T18:46:06.296Z,31.80
2018-02-15T18:48:33.815Z,28.95
2018-02-15T18:51:01.398Z,31.00
2018-02-15T18:53:29.130Z,28.33
2018-02-15T18:55:56.719Z,26.83
2018-02-15T18:58:24.279Z,27.87
2018-02-15T19:00:51.839Z,30.83
2018-02-15T19:03:19.392Z,30.43
2018-02-15T19:05:47.035Z,32.90
2018-02-15T19:08:15.054Z,29.50
2018-02-15T19:10:42.613Z,32.50
2018-02-15T19:13:10.141Z,29.98
2018-02-15T19:15:37.672Z,32.57
2018-02-15T19:18:05.222Z,30.80
2018-02-15T19:20:32.746Z,28.63
2018-02-15T19:23:00.304Z,28.77
2018-02-15T19:25:27.826Z,27.03
2018-02-15T19:27:56.259Z,30.57
2018-02-15T19:30:24.888Z,28.20
2018-02-15T19:32:53.411Z,36.20
2018-02-15T19:35:20.963Z,33.60
2018-02-15T19:37:48.514Z,29.13
2018-02-15T19:40:16.037Z,39.67
2018-02-15T19:42:43.594Z,34.13
2018-02-15T19:45:11.122Z,25.30
2018-02-15T19:47:39.083Z,26.07
2018-02-15T19:50:06.803Z,26.37
2018-02-15T19:52:34.323Z,32.28
2018-02-15T19:55:01.900Z,25.17
2018-02-15T19:57:29.531Z,27.10
2018-02-15T19:59:57.086Z,32.83
2018-02-15T20:02:24.610Z,27.70
2018-02-15T20:04:52.202Z,29.57
2018-02-15T20:07:19.746Z,29.47
2018-02-15T20:09:47.314Z,43.50
2018-02-15T20:12:14.844Z,26.47
2018-02-15T20:14:42.398Z,33.90
2018-02-15T20:17:10.994Z,42.07
2018-02-15T20:19:49.170Z,34.03
2018-02-15T20:22:16.706Z,32.60
2018-02-15T20:24:44.231Z,38.80
2018-02-15T20:27:17.516Z,36.13
2018-02-15T20:29:47.584Z,33.43
2018-02-15T20:32:16.294Z,37.33
2018-02-15T20:34:43.891Z,32.92
2018-02-15T20:37:11.438Z,29.20
2018-02-15T20:39:44.652Z,33.33
2018-02-15T20:42:12.247Z,33.75
2018-02-15T20:44:39.813Z,32.57
2018-02-15T20:47:07.478Z,31.97
2018-02-15T20:52:40.183Z,39.43
2018-02-15T20:55:13.284Z,30.67
2018-02-15T20:57:40.847Z,33.00
2018-02-15T21:00:08.491Z,29.83
2018-02-15T21:02:36.146Z,40.23
2018-02-15T21:05:03.697Z,34.35
2018-02-15T21:07:31.229Z,40.87
2018-02-15T21:10:00.548Z,46.63
2018-02-15T21:12:28.810Z,44.60
2018-02-15T21:14:56.427Z,43.20
2018-02-15T21:17:24.707Z,31.87
2018-02-15T21:19:52.403Z,42.53
2018-02-15T21:22:20.511Z,38.77
2018-02-15T21:24:48.169Z,34.23
2018-02-15T21:27:16.960Z,29.37
2018-02-15T21:29:46.593Z,31.47
2018-02-15T21:32:14.430Z,39.50
2018-02-15T21:34:41.991Z,37.47
2018-02-15T21:37:09.938Z,75.03
2018-02-15T21:39:37.528Z,36.03
2018-02-15T21:42:05.431Z,29.50
2018-02-15T21:44:33.131Z,40.43
2018-02-15T21:47:01.038Z,36.27
2018-02-15T21:49:28.631Z,31.27
2018-02-15T21:51:58.472Z,31.33
2018-02-15T21:54:26.187Z,36.10
2018-02-15T21:56:53.751Z,36.60
2018-02-15T21:59:22.804Z,30.97
2018-02-15T22:01:52.614Z,35.83
2018-02-15T22:04:21.992Z,37.27
2018-02-15T22:06:52.906Z,40.23
2018-02-15T22:09:21.279Z,33.00
2018-02-15T22:11:49.358Z,34.40
2018-02-15T22:14:16.930Z,42.65
2018-02-15T22:16:44.525Z,41.93
2018-02-15T22:19:12.086Z,45.53
2018-02-15T22:21:39.914Z,44.97
2018-02-15T22:24:07.868Z,44.33
2018-02-15T22:26:36.785Z,47.17
2018-02-15T22:29:04.427Z,41.80
2018-02-15T22:31:32.724Z,39.23
2018-02-15T22:34:00.307Z,50.30
2018-02-15T22:36:31.003Z,40.83
2018-02-15T22:38:59.335Z,40.43
2018-02-15T22:41:27.513Z,38.70
2018-02-15T22:43:55.582Z,36.80
2018-02-15T22:46:24.117Z,41.80
2018-02-15T22:48:51.746Z,42.00
2018-02-15T22:51:19.393Z,60.33
2018-02-15T22:53:48.419Z,40.70
2018-02-15T22:56:16.314Z,39.58
2018-02-15T22:58:43.852Z,44.80
2018-02-15T23:01:14.103Z,56.20
2018-02-15T23:03:41.653Z,39.77
2018-02-15T23:06:09.232Z,50.23
2018-02-15T23:08:36.810Z,47.10
2018-02-15T23:11:04.358Z,42.85
2018-02-15T23:13:32.012Z,47.83
2018-02-15T23:16:00.590Z,43.13
2018-02-15T23:18:28.485Z,37.53
2018-02-15T23:20:56.042Z,48.83
2018-02-15T23:23:23.593Z,47.13
2018-02-15T23:25:51.194Z,43.13
2018-02-15T23:28:18.736Z,51.30
2018-02-15T23:30:46.578Z,39.97
2018-02-15T23:33:14.216Z,41.93
2018-02-15T23:35:41.839Z,49.73
2018-02-15T23:38:09.441Z,40.87
2018-02-15T23:40:37.014Z,40.40
2018-02-15T23:43:04.638Z,38.60
2018-02-15T23:45:32.310Z,38.42
2018-02-15T23:48:00.402Z,45.70
2018-02-15T23:50:27.956Z,46.87
2018-02-15T23:52:55.949Z,46.27
2018-02-15T23:55:23.770Z,40.50
2018-02-15T23:57:51.657Z,35.73
